Time;durP1;ratioP1;P1;durP2;ratioP2;P2;SDS_P1;SDS_P2;PMS_P1;PMS_P2;Temp;Humidity;BMP_temperature;BMP_pressure;BME280_temperature;BME280_humidity;BME280_pressure;Samples;Min_cycle;Max_cycle;Signal;HPM_P1;HPM_P2
2021/12/02 00:00:40;;;;;;;3.08;0.93;;;5.00;99.90;;;;;;4925942;29;20048;-79
2021/12/02 00:03:08;;;;;;;0.90;0.43;;;5.00;99.90;;;;;;4926887;29;20087;-79
2021/12/02 00:05:33;;;;;;;0.20;0.20;;;5.00;99.90;;;;;;4910395;29;20567;-79
2021/12/02 00:07:59;;;;;;;0.43;0.35;;;5.10;99.90;;;;;;4909364;29;20047;-79
2021/12/02 00:10:29;;;;;;;0.75;0.63;;;5.10;99.90;;;;;;4908790;29;20135;-79
2021/12/02 00:12:56;;;;;;;3.13;0.77;;;5.00;99.90;;;;;;4909622;29;20508;-79
2021/12/02 00:15:25;;;;;;;4.10;1.20;;;5.00;99.90;;;;;;4909319;29;20133;-79
2021/12/02 00:18:29;;;;;;;0.85;0.63;;;5.10;99.90;;;;;;4926535;29;20047;-79
2021/12/02 00:21:04;;;;;;;0.20;0.20;;;5.10;99.90;;;;;;4926405;29;20058;-79
2021/12/02 00:23:55;;;;;;;0.10;0.10;;;5.10;99.90;;;;;;4926687;29;20052;-79
2021/12/02 00:26:21;;;;;;;0.10;0.10;;;5.00;99.90;;;;;;4927273;29;20043;-79
2021/12/02 00:28:52;;;;;;;0.10;0.10;;;5.00;99.90;;;;;;4923825;29;20067;-79
2021/12/02 00:31:20;;;;;;;0.75;0.75;;;5.00;99.90;;;;;;4894063;29;20052;-79
2021/12/02 00:33:48;;;;;;;0.20;0.20;;;5.10;99.90;;;;;;4894578;29;20482;-79
2021/12/02 00:36:16;;;;;;;0.10;0.10;;;5.10;99.90;;;;;;4894532;29;20082;-79
2021/12/02 00:38:43;;;;;;;0.50;0.50;;;5.00;99.90;;;;;;4911026;29;20048;-79
2021/12/02 00:41:13;;;;;;;0.15;0.15;;;5.00;99.90;;;;;;4911098;29;20123;-79
2021/12/02 00:43:39;;;;;;;3.20;1.42;;;4.90;99.90;;;;;;4894339;29;20054;-79
2021/12/02 00:46:08;;;;;;;9.57;0.77;;;4.80;99.90;;;;;;4893074;29;20051;-79
2021/12/02 00:48:36;;;;;;;0.43;0.43;;;4.80;99.90;;;;;;4894254;29;20055;-79
2021/12/02 00:51:02;;;;;;;0.73;0.73;;;4.70;99.90;;;;;;4893441;29;20095;-79
2021/12/02 00:53:30;;;;;;;0.43;0.43;;;4.60;99.90;;;;;;4911060;29;20561;-78
2021/12/02 00:55:56;;;;;;;2.55;1.00;;;4.50;99.90;;;;;;4893647;29;20630;-79
2021/12/02 00:58:23;;;;;;;1.02;0.70;;;4.50;99.90;;;;;;4893885;29;20056;-79
2021/12/02 01:00:52;;;;;;;0.10;0.10;;;4.50;99.90;;;;;;4893434;29;20111;-79
2021/12/02 01:03:19;;;;;;;4.23;0.90;;;4.40;99.90;;;;;;4894507;29;20128;-79
2021/12/02 01:05:45;;;;;;;0.15;0.15;;;4.40;99.90;;;;;;4894524;29;20393;-78
2021/12/02 01:08:12;;;;;;;1.50;1.20;;;4.40;99.90;;;;;;4910260;29;20048;-78
2021/12/02 01:10:39;;;;;;;1.00;0.52;;;4.40;99.90;;;;;;4893960;29;20056;-79
2021/12/02 01:13:05;;;;;;;0.83;0.17;;;4.40;99.90;;;;;;4893764;29;20074;-79
2021/12/02 01:15:31;;;;;;;0.10;0.10;;;4.40;99.90;;;;;;4909749;29;20131;-79
2021/12/02 01:17:56;;;;;;;1.10;0.57;;;4.50;99.90;;;;;;4893380;29;20497;-78
2021/12/02 01:20:22;;;;;;;3.37;0.40;;;4.50;99.90;;;;;;4910658;29;20534;-79
2021/12/02 01:22:49;;;;;;;0.50;0.50;;;4.50;99.90;;;;;;4910810;29;20054;-78
2021/12/02 01:25:18;;;;;;;0.30;0.30;;;4.50;99.90;;;;;;4910123;29;20044;-79
2021/12/02 01:27:47;;;;;;;0.20;0.20;;;4.50;99.90;;;;;;4893656;29;20052;-79
2021/12/02 01:30:14;;;;;;;0.10;0.10;;;4.50;99.90;;;;;;4892484;29;20048;-79
2021/12/02 01:32:40;;;;;;;8.30;0.60;;;4.50;99.90;;;;;;4893642;29;20055;-79
2021/12/02 01:35:07;;;;;;;0.33;0.33;;;4.50;99.90;;;;;;4893203;29;20056;-79
2021/12/02 01:37:33;;;;;;;0.10;0.10;;;4.50;99.90;;;;;;4893110;29;20138;-79
2021/12/02 01:39:59;;;;;;;0.10;0.10;;;4.50;99.90;;;;;;4892075;29;20561;-79
2021/12/02 01:42:28;;;;;;;1.90;0.70;;;4.50;99.90;;;;;;4910041;29;20401;-78
2021/12/02 01:44:57;;;;;;;2.63;0.30;;;4.40;99.90;;;;;;4909444;29;20401;-78
2021/12/02 01:47:25;;;;;;;0.55;0.50;;;4.40;99.90;;;;;;4910495;29;20036;-79
2021/12/02 01:49:56;;;;;;;1.60;0.57;;;4.40;99.90;;;;;;4910213;29;20084;-79
2021/12/02 01:52:30;;;;;;;0.10;0.10;;;4.40;99.90;;;;;;4893202;29;20719;-79
2021/12/02 01:55:05;;;;;;;0.67;0.40;;;4.30;99.90;;;;;;4893042;29;20048;-79
2021/12/02 01:57:33;;;;;;;0.07;0.07;;;4.30;99.90;;;;;;4892554;29;20056;-79
2021/12/02 02:00:19;;;;;;;7.83;0.67;;;4.30;99.90;;;;;;4891681;29;20044;-79
2021/12/02 02:02:46;;;;;;;1.07;0.70;;;4.30;99.90;;;;;;4909791;29;20040;-79
2021/12/02 02:05:15;;;;;;;1.07;0.27;;;4.30;99.90;;;;;;4892836;29;20100;-79
2021/12/02 02:07:48;;;;;;;0.47;0.47;;;4.30;99.90;;;;;;4908286;29;20096;-79
2021/12/02 02:10:15;;;;;;;0.13;0.13;;;4.30;99.90;;;;;;4892296;29;20056;-79
2021/12/02 02:12:41;;;;;;;0.10;0.10;;;4.30;99.90;;;;;;4892501;29;20048;-79
2021/12/02 02:15:06;;;;;;;0.50;0.50;;;4.40;99.90;;;;;;4959017;23;20062;-79
2021/12/02 02:17:40;;;;;;;0.10;0.10;;;4.40;99.90;;;;;;4930534;29;20090;-78
2021/12/02 02:20:08;;;;;;;0.13;0.13;;;4.30;99.90;;;;;;4947020;28;20054;-78
2021/12/02 02:22:34;;;;;;;0.10;0.10;;;4.30;99.90;;;;;;4947887;29;20051;-79
2021/12/02 02:25:00;;;;;;;0.10;0.10;;;4.30;99.90;;;;;;4930198;29;20507;-79
2021/12/02 02:27:26;;;;;;;0.80;0.17;;;4.30;99.90;;;;;;4947490;28;20043;-78
2021/12/02 02:29:52;;;;;;;1.03;0.43;;;4.30;99.90;;;;;;4946193;28;20142;-79
2021/12/02 02:32:18;;;;;;;0.10;0.10;;;4.30;99.90;;;;;;4948092;28;20132;-79
2021/12/02 02:34:44;;;;;;;0.10;0.10;;;4.30;99.90;;;;;;4947180;29;20138;-78
2021/12/02 02:37:09;;;;;;;0.10;0.10;;;4.30;99.90;;;;;;4947238;29;20135;-79
2021/12/02 02:39:37;;;;;;;0.10;0.10;;;4.30;99.90;;;;;;4947477;28;20047;-78
2021/12/02 02:42:05;;;;;;;0.20;0.20;;;4.20;99.90;;;;;;4946918;29;20043;-78
2021/12/02 02:44:32;;;;;;;0.10;0.10;;;4.30;99.90;;;;;;4929286;29;20518;-79
2021/12/02 02:46:58;;;;;;;0.25;0.25;;;4.20;99.90;;;;;;4930182;29;20126;-79
2021/12/02 02:49:24;;;;;;;0.10;0.10;;;4.10;99.90;;;;;;4945570;28;20502;-78
2021/12/02 02:51:50;;;;;;;0.77;0.77;;;4.10;99.90;;;;;;4947697;28;20054;-79
2021/12/02 02:54:16;;;;;;;0.40;0.40;;;4.00;99.90;;;;;;4930327;29;20043;-79
2021/12/02 02:57:06;;;;;;;0.37;0.37;;;4.00;99.90;;;;;;4929895;29;20089;-79
2021/12/02 02:59:53;;;;;;;0.10;0.10;;;4.00;99.90;;;;;;4960810;28;20122;-78
2021/12/02 03:06:03;;;;;;;0.20;0.20;;;4.00;99.90;;;;;;4946626;28;20055;-78
2021/12/02 03:07:54;;;;;;;3.63;0.53;;;4.00;99.90;;;;;;4921713;29;20111;-79
2021/12/02 03:13:11;;;;;;;0.20;0.20;;;4.00;99.90;;;;;;4929416;29;20302;-79
2021/12/02 03:18:22;;;;;;;0.10;0.10;;;4.00;99.90;;;;;;4929179;29;20063;-79
2021/12/02 03:20:47;;;;;;;0.60;0.60;;;4.00;99.90;;;;;;4930211;29;20051;-79
2021/12/02 03:23:13;;;;;;;0.10;0.10;;;4.00;99.90;;;;;;4946249;29;20039;-79
2021/12/02 03:25:39;;;;;;;1.70;0.90;;;4.00;99.90;;;;;;4929633;29;20062;-78
2021/12/02 03:28:05;;;;;;;0.10;0.10;;;4.00;99.90;;;;;;4944662;29;20609;-79
2021/12/02 03:30:31;;;;;;;2.03;0.40;;;4.00;99.90;;;;;;4926268;29;20035;-79
2021/12/02 03:32:56;;;;;;;3.30;0.47;;;4.00;99.90;;;;;;4927340;29;20043;-79
2021/12/02 03:35:22;;;;;;;0.67;0.47;;;4.00;99.90;;;;;;4910295;29;20066;-79
2021/12/02 03:37:47;;;;;;;0.07;0.07;;;4.00;99.90;;;;;;4927807;29;20409;-79
2021/12/02 03:40:13;;;;;;;0.10;0.10;;;4.00;99.90;;;;;;4910347;29;20055;-78
2021/12/02 03:42:51;;;;;;;4.30;1.10;;;4.00;99.90;;;;;;4927023;29;20055;-78
2021/12/02 03:45:17;;;;;;;0.20;0.20;;;4.00;99.90;;;;;;4910169;29;20155;-79
2021/12/02 03:47:44;;;;;;;0.30;0.30;;;4.00;99.90;;;;;;4927079;29;20051;-78
2021/12/02 03:50:10;;;;;;;0.10;0.10;;;4.00;99.90;;;;;;4909821;29;20047;-79
2021/12/02 03:52:36;;;;;;;0.10;0.10;;;4.00;99.90;;;;;;4927648;29;20048;-79
2021/12/02 03:55:02;;;;;;;1.50;0.93;;;4.00;99.90;;;;;;4926666;29;20102;-79
2021/12/02 03:57:31;;;;;;;6.23;0.70;;;4.10;99.90;;;;;;4927153;29;20055;-79
2021/12/02 03:59:56;;;;;;;0.20;0.20;;;4.00;99.90;;;;;;4925881;29;20115;-79
2021/12/02 04:02:22;;;;;;;0.77;0.60;;;4.00;99.90;;;;;;4912243;29;20146;-79
2021/12/02 04:04:48;;;;;;;0.10;0.10;;;4.00;99.90;;;;;;4931420;29;20047;-79
2021/12/02 04:07:16;;;;;;;0.10;0.10;;;4.00;99.90;;;;;;4931256;29;20249;-79
2021/12/02 04:09:43;;;;;;;0.10;0.10;;;4.00;99.90;;;;;;4914303;29;20058;-79
2021/12/02 04:12:17;;;;;;;0.20;0.20;;;4.00;99.90;;;;;;4930412;29;20047;-78
2021/12/02 04:15:03;;;;;;;0.20;0.20;;;4.00;99.90;;;;;;4929716;29;20056;-79
2021/12/02 04:17:40;;;;;;;0.30;0.30;;;4.00;99.90;;;;;;4929772;29;20051;-78
2021/12/02 04:20:09;;;;;;;0.77;0.67;;;4.00;99.90;;;;;;4913085;29;20055;-78
2021/12/02 04:22:34;;;;;;;3.70;0.60;;;4.10;99.90;;;;;;4931077;29;20079;-78
2021/12/02 04:25:00;;;;;;;0.10;0.10;;;4.10;99.90;;;;;;4930456;29;20083;-78
2021/12/02 04:27:25;;;;;;;0.43;0.43;;;4.10;99.90;;;;;;4913396;29;20082;-79
2021/12/02 04:29:51;;;;;;;0.17;0.17;;;4.10;99.90;;;;;;4945036;29;20050;-79
2021/12/02 04:32:17;;;;;;;0.33;0.33;;;4.10;99.90;;;;;;4964729;28;20058;-79
2021/12/02 04:34:42;;;;;;;0.10;0.10;;;4.10;99.90;;;;;;4932137;29;20410;-79
2021/12/02 04:37:08;;;;;;;0.20;0.20;;;4.10;99.90;;;;;;4949630;29;20106;-78
2021/12/02 04:39:33;;;;;;;0.25;0.25;;;4.10;99.90;;;;;;4949238;28;20050;-79
2021/12/02 04:41:59;;;;;;;0.20;0.20;;;4.10;99.90;;;;;;4948281;28;20040;-79
2021/12/02 04:44:24;;;;;;;0.87;0.43;;;4.10;99.90;;;;;;4948538;29;20047;-78
2021/12/02 04:46:51;;;;;;;0.10;0.10;;;4.10;99.90;;;;;;4949711;28;20488;-79
2021/12/02 04:49:17;;;;;;;0.10;0.10;;;4.10;99.90;;;;;;4949750;28;20039;-79
2021/12/02 04:51:42;;;;;;;0.10;0.10;;;4.10;99.90;;;;;;4949133;28;20046;-79
2021/12/02 04:54:08;;;;;;;0.10;0.10;;;4.10;99.90;;;;;;4948717;28;20046;-79
2021/12/02 04:56:34;;;;;;;0.10;0.10;;;4.20;99.90;;;;;;4949531;29;20083;-79
2021/12/02 04:58:59;;;;;;;4.70;0.93;;;4.20;99.90;;;;;;4947993;28;20126;-79
2021/12/02 05:01:25;;;;;;;4.33;0.40;;;4.20;99.90;;;;;;4963937;28;20491;-79
2021/12/02 05:03:50;;;;;;;0.10;0.10;;;4.20;99.90;;;;;;4931883;29;20066;-78
2021/12/02 05:06:16;;;;;;;0.50;0.50;;;4.10;99.90;;;;;;4949402;29;20122;-78
2021/12/02 05:08:42;;;;;;;0.17;0.17;;;4.20;99.90;;;;;;4949413;29;20039;-78
2021/12/02 05:11:07;;;;;;;0.20;0.20;;;4.30;99.90;;;;;;4948380;28;20051;-79
2021/12/02 05:13:33;;;;;;;0.30;0.30;;;4.20;99.90;;;;;;4948791;28;20063;-78
2021/12/02 05:15:58;;;;;;;0.10;0.10;;;4.20;99.90;;;;;;4930367;29;20462;-79
2021/12/02 05:18:24;;;;;;;0.10;0.10;;;4.20;99.90;;;;;;4948650;28;20047;-79
2021/12/02 05:20:50;;;;;;;1.70;0.23;;;4.20;99.90;;;;;;4949231;28;20047;-79
2021/12/02 05:23:15;;;;;;;0.30;0.30;;;4.20;99.90;;;;;;4948903;28;20057;-78
2021/12/02 05:25:44;;;;;;;0.10;0.10;;;4.20;99.90;;;;;;4931420;28;20051;-79
2021/12/02 05:28:11;;;;;;;0.43;0.43;;;4.30;99.90;;;;;;4946500;29;20055;-78
2021/12/02 05:30:37;;;;;;;0.25;0.25;;;4.20;99.90;;;;;;4928632;29;20039;-78
2021/12/02 05:33:02;;;;;;;0.10;0.10;;;4.20;99.90;;;;;;4929121;29;20098;-79
2021/12/02 05:35:28;;;;;;;0.37;0.37;;;4.20;99.90;;;;;;4912750;29;20135;-78
2021/12/02 05:37:54;;;;;;;0.23;0.20;;;4.20;99.90;;;;;;4928762;29;20054;-79
2021/12/02 05:40:19;;;;;;;0.20;0.20;;;4.20;99.90;;;;;;4929611;29;20404;-79
2021/12/02 05:42:45;;;;;;;0.10;0.10;;;4.20;99.90;;;;;;4929604;29;20059;-78
2021/12/02 05:45:10;;;;;;;0.10;0.10;;;4.20;99.90;;;;;;4927783;29;20052;-79
2021/12/02 05:47:36;;;;;;;0.50;0.43;;;4.10;99.90;;;;;;4928387;29;20047;-79
2021/12/02 05:50:02;;;;;;;0.10;0.10;;;4.10;99.90;;;;;;4929109;29;20515;-79
2021/12/02 05:52:27;;;;;;;0.10;0.10;;;4.10;99.90;;;;;;4929166;29;20043;-78
2021/12/02 05:54:53;;;;;;;0.10;0.10;;;4.00;99.90;;;;;;4929328;29;20496;-78
2021/12/02 05:57:19;;;;;;;1.95;0.68;;;4.10;99.90;;;;;;4912097;29;20051;-79
2021/12/02 05:59:45;;;;;;;0.20;0.20;;;4.00;99.90;;;;;;4911487;29;20054;-79
2021/12/02 06:02:10;;;;;;;0.10;0.10;;;4.10;99.90;;;;;;4928723;29;20044;-79
2021/12/02 06:04:38;;;;;;;0.20;0.20;;;4.00;99.90;;;;;;4912085;29;20051;-79
2021/12/02 06:07:04;;;;;;;0.47;0.17;;;4.00;99.90;;;;;;4928514;29;20051;-79
2021/12/02 06:09:30;;;;;;;0.40;0.30;;;4.10;99.90;;;;;;4911945;29;20110;-79
2021/12/02 06:11:55;;;;;;;0.37;0.37;;;4.10;99.90;;;;;;4911300;29;20047;-80
2021/12/02 06:14:21;;;;;;;0.67;0.50;;;4.10;99.90;;;;;;4910883;29;20059;-80
2021/12/02 06:16:47;;;;;;;0.40;0.40;;;4.10;99.90;;;;;;4911586;29;20072;-81
2021/12/02 06:19:12;;;;;;;0.13;0.13;;;4.10;99.90;;;;;;4928310;29;20474;-79
2021/12/02 06:21:38;;;;;;;0.30;0.30;;;4.10;99.90;;;;;;4933233;29;20039;-79
2021/12/02 06:24:05;;;;;;;2.47;0.70;;;4.10;99.90;;;;;;4944390;28;20050;-79
2021/12/02 06:26:32;;;;;;;0.30;0.30;;;4.10;99.90;;;;;;4947671;28;20051;-79
2021/12/02 06:28:58;;;;;;;0.10;0.10;;;4.10;99.90;;;;;;4938117;28;20404;-79
2021/12/02 06:31:24;;;;;;;0.37;0.37;;;4.10;99.90;;;;;;4928272;29;20039;-79
2021/12/02 06:33:50;;;;;;;0.47;0.47;;;4.10;99.90;;;;;;4928999;29;20468;-79
2021/12/02 06:36:15;;;;;;;0.10;0.10;;;4.10;99.90;;;;;;4927107;29;20083;-79
2021/12/02 06:38:42;;;;;;;0.10;0.10;;;4.10;99.90;;;;;;4928575;29;20098;-79
2021/12/02 06:41:08;;;;;;;0.10;0.10;;;4.10;99.90;;;;;;4931047;29;20055;-78
2021/12/02 06:43:33;;;;;;;0.10;0.10;;;4.10;99.90;;;;;;4943707;29;20043;-79
2021/12/02 06:45:59;;;;;;;0.10;0.10;;;4.10;99.90;;;;;;4945075;28;20070;-78
2021/12/02 06:48:24;;;;;;;0.10;0.10;;;4.10;99.90;;;;;;4933231;29;20044;-78
2021/12/02 06:50:50;;;;;;;0.10;0.10;;;4.10;99.90;;;;;;4933242;28;20141;-84
2021/12/02 06:53:17;;;;;;;8.67;0.63;;;4.00;99.90;;;;;;4930657;28;20053;-80
2021/12/02 06:55:43;;;;;;;0.00;0.00;;;4.00;99.90;;;;;;4942912;29;20178;-83
2021/12/02 06:58:09;;;;;;;0.47;0.47;;;4.00;99.90;;;;;;4935294;28;20039;-86
2021/12/02 07:00:35;;;;;;;0.27;0.27;;;4.00;99.90;;;;;;4951885;28;20065;-92
2021/12/02 07:03:01;;;;;;;0.23;0.23;;;4.00;99.90;;;;;;4947470;29;20051;-86
2021/12/02 07:05:29;;;;;;;0.10;0.10;;;4.00;99.90;;;;;;4926079;29;20052;-85
2021/12/02 07:07:55;;;;;;;0.00;0.00;;;3.90;99.90;;;;;;4927834;29;20051;-86
2021/12/02 07:10:24;;;;;;;0.10;0.10;;;4.00;99.90;;;;;;4910941;29;20051;-79
2021/12/02 07:12:55;;;;;;;1.80;0.70;;;4.00;99.90;;;;;;4960904;28;20043;-78
2021/12/02 07:15:26;;;;;;;0.30;0.30;;;4.00;99.90;;;;;;4956540;28;20053;-79
2021/12/02 07:17:56;;;;;;;0.57;0.57;;;4.00;99.90;;;;;;4940492;29;20047;-80
2021/12/02 07:20:29;;;;;;;0.10;0.10;;;4.00;99.90;;;;;;4945599;29;20047;-79
2021/12/02 07:22:55;;;;;;;1.27;0.93;;;4.10;99.90;;;;;;4946949;29;20047;-80
2021/12/02 07:25:21;;;;;;;0.10;0.10;;;4.10;99.90;;;;;;4945412;28;20135;-79
2021/12/02 07:27:47;;;;;;;0.10;0.10;;;4.10;99.90;;;;;;4947087;28;20117;-80
2021/12/02 07:30:14;;;;;;;0.27;0.27;;;4.10;99.90;;;;;;4918129;29;20043;-82
2021/12/02 07:32:45;;;;;;;0.17;0.17;;;4.10;99.90;;;;;;4929229;28;20044;-79
2021/12/02 07:35:13;;;;;;;0.75;0.75;;;4.10;99.90;;;;;;4945478;28;20093;-79
2021/12/02 07:37:45;;;;;;;0.10;0.10;;;4.10;99.90;;;;;;4928636;29;20047;-79
2021/12/02 07:40:12;;;;;;;0.28;0.28;;;4.10;99.90;;;;;;4925591;29;20456;-79
2021/12/02 07:42:40;;;;;;;0.20;0.20;;;4.10;99.90;;;;;;4915914;29;20095;-79
2021/12/02 07:45:07;;;;;;;0.10;0.10;;;4.20;99.90;;;;;;4933571;29;20058;-89
2021/12/02 07:47:34;;;;;;;0.17;0.17;;;4.20;99.90;;;;;;4917847;29;20054;-86
2021/12/02 07:50:00;;;;;;;4.07;0.97;;;4.20;99.90;;;;;;4928679;29;20090;-88
2021/12/02 07:52:26;;;;;;;1.30;0.80;;;4.20;99.90;;;;;;4946778;29;20093;-87
2021/12/02 07:54:55;;;;;;;1.07;1.07;;;4.20;99.90;;;;;;4927886;29;20150;-80
2021/12/02 07:57:21;;;;;;;3.30;1.13;;;4.20;99.90;;;;;;4946625;29;20039;-78
2021/12/02 07:59:50;;;;;;;0.33;0.30;;;4.20;99.90;;;;;;4945370;28;20047;-81
2021/12/02 08:02:16;;;;;;;0.83;0.83;;;4.20;99.90;;;;;;4945990;28;20047;-82
2021/12/02 08:04:42;;;;;;;0.20;0.20;;;4.20;99.90;;;;;;4945916;28;20645;-81
2021/12/02 08:07:08;;;;;;;0.50;0.50;;;4.20;99.90;;;;;;4945181;28;20142;-81
2021/12/02 08:09:33;;;;;;;0.40;0.40;;;4.20;99.90;;;;;;4945481;29;20139;-81
2021/12/02 08:12:00;;;;;;;0.20;0.20;;;4.20;99.90;;;;;;4945324;29;20043;-81
2021/12/02 08:14:26;;;;;;;1.23;1.03;;;4.20;99.90;;;;;;4944376;28;20055;-83
2021/12/02 08:16:52;;;;;;;0.43;0.30;;;4.20;99.90;;;;;;4945547;28;20066;-84
2021/12/02 08:19:18;;;;;;;0.63;0.63;;;4.20;99.90;;;;;;4928787;29;20059;-81
2021/12/02 08:21:43;;;;;;;1.37;1.27;;;4.20;99.90;;;;;;4928189;29;20051;-81
2021/12/02 08:24:09;;;;;;;0.20;0.20;;;4.20;99.90;;;;;;4928452;29;20086;-81
2021/12/02 08:26:35;;;;;;;7.00;0.77;;;4.20;99.90;;;;;;4928732;29;20043;-81
2021/12/02 08:29:01;;;;;;;0.43;0.43;;;4.20;99.90;;;;;;4935543;29;20059;-80
2021/12/02 08:31:27;;;;;;;0.20;0.20;;;4.10;99.90;;;;;;4925535;29;20160;-81
2021/12/02 08:33:54;;;;;;;0.27;0.27;;;4.10;99.90;;;;;;4925094;29;20640;-81
2021/12/02 08:36:23;;;;;;;0.50;0.50;;;4.10;99.90;;;;;;4909488;29;20064;-80
2021/12/02 08:38:51;;;;;;;2.13;0.83;;;4.10;99.90;;;;;;4909375;29;20048;-80
2021/12/02 08:41:19;;;;;;;0.33;0.33;;;4.10;99.90;;;;;;4909405;29;20048;-80
2021/12/02 08:43:46;;;;;;;3.37;1.03;;;4.10;99.90;;;;;;4925205;29;20052;-80
2021/12/02 08:46:12;;;;;;;1.37;1.30;;;4.10;99.90;;;;;;4908512;29;20051;-80
2021/12/02 08:48:37;;;;;;;0.57;0.57;;;4.10;99.90;;;;;;4911037;29;20051;-80
2021/12/02 08:51:03;;;;;;;2.67;0.33;;;4.10;99.90;;;;;;4912191;29;20054;-81
2021/12/02 08:53:29;;;;;;;0.10;0.10;;;4.10;99.90;;;;;;4929296;29;20090;-80
2021/12/02 08:55:54;;;;;;;0.50;0.50;;;4.10;99.90;;;;;;4929061;29;20113;-81
2021/12/02 08:58:20;;;;;;;0.40;0.40;;;4.10;99.90;;;;;;4929129;29;20347;-81
2021/12/02 09:00:46;;;;;;;0.23;0.23;;;4.10;99.90;;;;;;4929841;29;20114;-80
2021/12/02 09:03:14;;;;;;;8.50;0.63;;;4.20;99.90;;;;;;4911866;29;20043;-81
2021/12/02 09:05:41;;;;;;;0.40;0.40;;;4.20;99.90;;;;;;4929250;29;20435;-80
2021/12/02 09:08:07;;;;;;;0.30;0.30;;;4.10;99.90;;;;;;4928842;29;20124;-80
2021/12/02 09:10:34;;;;;;;0.30;0.30;;;4.20;99.90;;;;;;4929898;29;20063;-80
2021/12/02 09:13:07;;;;;;;0.30;0.30;;;4.20;99.90;;;;;;4911339;29;20123;-80
2021/12/02 09:15:32;;;;;;;1.17;1.13;;;4.20;99.90;;;;;;4896181;29;20054;-80
2021/12/02 09:17:58;;;;;;;1.37;0.67;;;4.20;99.90;;;;;;4911604;29;20036;-81
2021/12/02 09:20:23;;;;;;;0.87;0.87;;;4.30;99.90;;;;;;4928861;29;20257;-80
2021/12/02 09:22:49;;;;;;;1.33;1.23;;;4.20;99.90;;;;;;4929194;29;20051;-80
2021/12/02 09:25:16;;;;;;;3.20;1.33;;;4.20;99.90;;;;;;4928495;29;20040;-80
2021/12/02 09:27:45;;;;;;;2.10;1.00;;;4.30;99.90;;;;;;4929225;29;20048;-80
2021/12/02 09:30:11;;;;;;;0.27;0.27;;;4.30;99.90;;;;;;4925415;29;20318;-80
2021/12/02 09:32:38;;;;;;;0.50;0.50;;;4.40;99.90;;;;;;4912325;29;20448;-80
2021/12/02 09:35:05;;;;;;;0.23;0.23;;;4.30;99.90;;;;;;4947351;28;20487;-80
2021/12/02 09:37:31;;;;;;;3.50;1.73;;;4.40;99.90;;;;;;4947711;28;20043;-80
2021/12/02 09:39:57;;;;;;;0.28;0.28;;;4.30;99.90;;;;;;4948047;29;20547;-80
2021/12/02 09:42:25;;;;;;;2.17;1.60;;;4.40;99.90;;;;;;4930573;29;20051;-80
2021/12/02 09:44:55;;;;;;;0.27;0.27;;;4.30;99.90;;;;;;4947058;29;20035;-80
2021/12/02 09:47:21;;;;;;;10.50;0.67;;;4.40;99.90;;;;;;4930772;29;20618;-80
2021/12/02 09:49:47;;;;;;;1.03;0.30;;;4.40;99.90;;;;;;4948390;29;20078;-80
2021/12/02 09:52:15;;;;;;;0.10;0.10;;;4.40;99.90;;;;;;4947125;29;20051;-80
2021/12/02 09:54:45;;;;;;;0.63;0.63;;;4.40;99.90;;;;;;4947664;29;20159;-80
2021/12/02 09:57:17;;;;;;;1.20;1.10;;;4.40;99.90;;;;;;4930347;29;20737;-80
2021/12/02 10:02:15;;;;;;;4.90;1.23;;;4.50;99.90;;;;;;4947453;29;20047;-80
2021/12/02 10:04:48;;;;;;;0.45;0.45;;;4.60;99.90;;;;;;4930245;29;20082;-80
2021/12/02 10:09:53;;;;;;;7.13;1.77;;;4.60;99.90;;;;;;4930391;29;20055;-80
2021/12/02 10:12:22;;;;;;;6.72;2.15;;;4.50;99.90;;;;;;4930327;29;20056;-80
2021/12/02 10:14:53;;;;;;;0.10;0.10;;;4.40;99.90;;;;;;4929587;29;20249;-80
2021/12/02 10:17:46;;;;;;;3.90;1.55;;;4.20;99.90;;;;;;4914755;29;20142;-80
2021/12/02 10:20:35;;;;;;;0.17;0.17;;;4.10;99.90;;;;;;4929415;29;20055;-80
2021/12/02 10:23:26;;;;;;;0.20;0.20;;;4.00;99.90;;;;;;4913708;29;20047;-80
2021/12/02 10:26:00;;;;;;;0.53;0.53;;;3.90;99.90;;;;;;4929573;29;20040;-81
2021/12/02 10:28:28;;;;;;;0.27;0.27;;;3.90;99.90;;;;;;4946049;29;20043;-81
2021/12/02 10:30:59;;;;;;;0.10;0.10;;;3.80;99.90;;;;;;4946645;28;20038;-81
2021/12/02 10:33:48;;;;;;;0.23;0.20;;;3.80;99.90;;;;;;4947164;29;20097;-81
2021/12/02 10:36:34;;;;;;;0.40;0.40;;;3.80;99.90;;;;;;4929873;29;20559;-80
2021/12/02 10:39:08;;;;;;;0.10;0.10;;;3.70;99.90;;;;;;4929208;29;20052;-81
2021/12/02 10:41:34;;;;;;;0.40;0.40;;;3.70;99.90;;;;;;4947098;28;20039;-81
2021/12/02 10:44:03;;;;;;;3.50;0.57;;;3.70;99.90;;;;;;4927991;29;20047;-81
2021/12/02 10:46:29;;;;;;;0.30;0.20;;;3.70;99.90;;;;;;4929561;29;20094;-80
2021/12/02 10:48:55;;;;;;;0.10;0.10;;;3.70;99.90;;;;;;4929418;29;20036;-81
2021/12/02 10:51:46;;;;;;;0.30;0.30;;;3.70;99.90;;;;;;4945138;29;20085;-80
2021/12/02 10:54:18;;;;;;;0.50;0.50;;;3.70;99.90;;;;;;4945818;28;20039;-81
2021/12/02 10:56:50;;;;;;;0.33;0.33;;;3.70;99.90;;;;;;4946513;28;20058;-81
2021/12/02 10:59:29;;;;;;;3.63;1.48;;;3.80;99.90;;;;;;4928161;29;20318;-81
2021/12/02 11:01:59;;;;;;;1.07;0.77;;;3.80;99.90;;;;;;4924970;29;20078;-81
2021/12/02 11:04:26;;;;;;;0.20;0.20;;;3.80;99.90;;;;;;4927774;29;20456;-81
2021/12/02 11:06:56;;;;;;;0.27;0.27;;;3.90;99.90;;;;;;4927828;29;20044;-82
2021/12/02 11:09:28;;;;;;;0.17;0.17;;;3.90;99.90;;;;;;4927537;28;20137;-82
2021/12/02 11:12:10;;;;;;;0.37;0.37;;;3.90;99.90;;;;;;4929645;29;20047;-80
2021/12/02 11:14:38;;;;;;;0.30;0.30;;;4.00;99.90;;;;;;4943534;28;20047;-80
2021/12/02 11:17:15;;;;;;;0.20;0.20;;;4.00;99.90;;;;;;4926185;29;20142;-81
2021/12/02 11:19:45;;;;;;;0.40;0.40;;;4.00;99.90;;;;;;4924307;28;20158;-80
2021/12/02 11:22:16;;;;;;;0.70;0.70;;;4.00;99.90;;;;;;4941848;29;20519;-79
2021/12/02 11:24:42;;;;;;;0.50;0.50;;;4.10;99.90;;;;;;4927048;29;20126;-80
2021/12/02 11:27:13;;;;;;;0.20;0.20;;;4.10;99.90;;;;;;4926755;29;20448;-79
2021/12/02 11:29:56;;;;;;;0.13;0.13;;;4.10;99.90;;;;;;4911597;29;20219;-81
2021/12/02 11:32:45;;;;;;;4.63;0.30;;;4.10;99.90;;;;;;4895398;29;20050;-81
2021/12/02 11:35:19;;;;;;;0.10;0.10;;;4.20;99.90;;;;;;4916250;29;20753;-80
2021/12/02 11:37:53;;;;;;;0.63;0.63;;;4.30;99.90;;;;;;4936553;29;20043;-80
2021/12/02 11:40:22;;;;;;;0.30;0.30;;;4.30;99.90;;;;;;4910400;29;20087;-81
2021/12/02 11:42:50;;;;;;;2.43;1.03;;;4.30;99.90;;;;;;4935049;29;20137;-81
2021/12/02 11:45:17;;;;;;;0.30;0.30;;;4.40;99.90;;;;;;4929101;29;20065;-78
2021/12/02 11:47:47;;;;;;;3.47;0.53;;;4.40;99.90;;;;;;4945920;28;20104;-77
2021/12/02 11:50:14;;;;;;;0.10;0.10;;;4.50;99.90;;;;;;4944733;29;20047;-78
2021/12/02 11:52:41;;;;;;;0.30;0.30;;;4.50;99.90;;;;;;4945683;29;20402;-78
2021/12/02 11:55:19;;;;;;;0.50;0.50;;;4.50;99.90;;;;;;4945016;28;20050;-78
2021/12/02 11:57:46;;;;;;;0.53;0.53;;;4.50;99.90;;;;;;4944925;28;20518;-81
2021/12/02 12:00:17;;;;;;;0.20;0.20;;;4.50;99.90;;;;;;4919594;29;20404;-81
2021/12/02 12:02:51;;;;;;;0.60;0.60;;;4.50;99.90;;;;;;4927685;29;20383;-81
2021/12/02 12:05:22;;;;;;;2.08;0.65;;;4.50;99.90;;;;;;4947367;28;20055;-83
2021/12/02 12:07:48;;;;;;;3.00;1.07;;;4.50;99.90;;;;;;4946065;28;20141;-84
2021/12/02 12:10:21;;;;;;;0.30;0.30;;;4.50;99.90;;;;;;4921992;29;20528;-85
2021/12/02 12:12:50;;;;;;;0.20;0.20;;;4.50;99.90;;;;;;4909236;29;20047;-85
2021/12/02 12:15:37;;;;;;;0.87;0.87;;;4.50;99.90;;;;;;4927969;29;20059;-84
2021/12/02 12:18:05;;;;;;;0.50;0.50;;;4.40;99.90;;;;;;4910203;29;20555;-84
2021/12/02 12:20:55;;;;;;;0.30;0.30;;;4.40;99.90;;;;;;4938718;28;20129;-84
2021/12/02 12:23:30;;;;;;;0.43;0.43;;;4.40;99.90;;;;;;4920016;29;20042;-82
2021/12/02 12:26:31;;;;;;;6.60;1.00;;;4.40;99.90;;;;;;4914566;29;20137;-84
2021/12/02 12:29:20;;;;;;;1.50;0.60;;;4.40;99.90;;;;;;4906538;29;20063;-82
2021/12/02 12:32:01;;;;;;;0.20;0.20;;;4.50;99.90;;;;;;4924466;29;20055;-80
2021/12/02 12:34:36;;;;;;;1.30;0.80;;;4.50;99.90;;;;;;4931921;29;20444;-81
2021/12/02 12:37:57;;;;;;;4.83;0.70;;;4.50;99.90;;;;;;4938594;28;20455;-81
2021/12/02 12:40:22;;;;;;;0.20;0.20;;;4.50;99.90;;;;;;4905450;29;20070;-89
2021/12/02 12:43:02;;;;;;;1.83;0.50;;;4.50;99.90;;;;;;4918244;29;20047;-84
2021/12/02 12:45:37;;;;;;;1.53;1.07;;;4.50;99.90;;;;;;4932450;29;20114;-82
2021/12/02 12:48:06;;;;;;;1.30;0.98;;;4.50;99.90;;;;;;4942284;28;20446;-83
2021/12/02 12:50:43;;;;;;;0.70;0.70;;;4.50;99.90;;;;;;4929426;29;20054;-79
2021/12/02 12:53:19;;;;;;;11.50;1.08;;;4.60;99.90;;;;;;4913743;29;20040;-84
2021/12/02 12:55:53;;;;;;;0.10;0.10;;;4.60;99.90;;;;;;4898268;28;20059;-84
2021/12/02 12:58:28;;;;;;;0.10;0.10;;;4.60;99.90;;;;;;4912835;29;20055;-80
2021/12/02 13:00:55;;;;;;;0.10;0.10;;;4.60;99.90;;;;;;4911199;29;20046;-82
2021/12/02 13:03:39;;;;;;;2.10;1.13;;;4.70;99.90;;;;;;4939964;29;20046;-86
2021/12/02 13:06:20;;;;;;;0.10;0.10;;;4.60;99.90;;;;;;4947993;29;20055;-85
2021/12/02 13:08:51;;;;;;;0.10;0.10;;;4.70;99.90;;;;;;4932402;29;20134;-87
2021/12/02 13:11:20;;;;;;;0.20;0.20;;;4.70;99.90;;;;;;4930192;29;20043;-87
2021/12/02 13:13:47;;;;;;;12.30;0.85;;;4.70;99.90;;;;;;4946924;29;20455;-83
2021/12/02 13:16:14;;;;;;;0.43;0.43;;;4.70;99.90;;;;;;4948226;29;20047;-88
2021/12/02 13:18:42;;;;;;;0.45;0.43;;;4.80;99.90;;;;;;4929800;28;20059;-90
2021/12/02 13:21:21;;;;;;;8.48;0.95;;;4.80;99.90;;;;;;4930784;29;20399;-79